Time;durP1;ratioP1;P1;durP2;ratioP2;P2;SDS_P1;SDS_P2;PMS_P1;PMS_P2;Temp;Humidity;BMP_temperature;BMP_pressure;BME280_temperature;BME280_humidity;BME280_pressure;Samples;Min_cycle;Max_cycle;Signal;HPM_P1;HPM_P2
2023/05/27 00:00:08;;;;;;;9.00;4.22;;;17.60;66.40;;;;;;5112802;28;20498;-73
2023/05/27 00:02:34;;;;;;;12.55;4.43;;;17.50;66.00;;;;;;5114818;28;20039;-72
2023/05/27 00:05:00;;;;;;;13.43;4.30;;;17.50;66.10;;;;;;5114518;28;20346;-72
2023/05/27 00:07:27;;;;;;;12.02;4.13;;;17.50;65.50;;;;;;5114120;28;20024;-72
2023/05/27 00:09:53;;;;;;;8.05;3.67;;;17.50;64.90;;;;;;5114434;28;20032;-72
2023/05/27 00:12:19;;;;;;;9.02;3.85;;;17.50;64.60;;;;;;5113469;28;20045;-72
2023/05/27 00:14:45;;;;;;;13.85;3.72;;;17.40;64.80;;;;;;5114440;28;20030;-72
2023/05/27 00:17:13;;;;;;;12.10;3.90;;;17.40;64.30;;;;;;5113981;28;20096;-72
2023/05/27 00:19:44;;;;;;;10.68;3.80;;;17.40;64.30;;;;;;5114083;27;20048;-72
2023/05/27 00:22:11;;;;;;;11.68;3.70;;;17.30;64.30;;;;;;5113865;28;20030;-72
2023/05/27 00:24:39;;;;;;;8.35;3.40;;;17.30;63.90;;;;;;5114121;28;20028;-72
2023/05/27 00:27:05;;;;;;;15.13;4.30;;;17.30;63.90;;;;;;5114141;28;20062;-70
2023/05/27 00:29:31;;;;;;;12.20;3.97;;;17.30;63.90;;;;;;5114419;27;20026;-72
2023/05/27 00:31:56;;;;;;;10.77;3.95;;;17.20;63.50;;;;;;5114076;28;20380;-71
2023/05/27 00:34:22;;;;;;;8.82;3.55;;;17.30;64.00;;;;;;5113668;28;20035;-72
2023/05/27 00:36:48;;;;;;;11.25;3.60;;;17.20;63.30;;;;;;5113642;28;20028;-71
2023/05/27 00:39:13;;;;;;;10.65;3.63;;;17.10;62.70;;;;;;5113362;28;20043;-71
2023/05/27 00:41:47;;;;;;;9.45;3.55;;;17.10;62.50;;;;;;5113836;28;20026;-72
2023/05/27 00:44:13;;;;;;;15.68;4.43;;;17.10;62.30;;;;;;5113487;28;20026;-72
2023/05/27 00:46:39;;;;;;;11.60;4.07;;;17.00;62.00;;;;;;5113984;28;20043;-69
2023/05/27 00:49:05;;;;;;;10.27;3.67;;;17.00;61.60;;;;;;5114000;28;20078;-71
2023/05/27 00:51:31;;;;;;;9.00;3.67;;;17.00;61.30;;;;;;5113030;28;20042;-71
2023/05/27 00:53:57;;;;;;;9.63;3.53;;;17.00;61.60;;;;;;5113616;28;20024;-71
2023/05/27 00:56:22;;;;;;;15.32;4.38;;;17.00;61.10;;;;;;5113552;28;20031;-71
2023/05/27 00:58:48;;;;;;;10.85;3.67;;;17.00;61.50;;;;;;5113501;28;20031;-71
2023/05/27 01:01:14;;;;;;;9.98;3.58;;;16.90;61.50;;;;;;5112805;28;20032;-71
2023/05/27 01:03:41;;;;;;;10.88;4.00;;;16.90;61.50;;;;;;5113601;28;20076;-71
2023/05/27 01:06:28;;;;;;;9.27;4.20;;;16.80;61.80;;;;;;5113474;28;20076;-70
2023/05/27 01:09:04;;;;;;;17.80;4.57;;;16.80;62.10;;;;;;5113423;28;20084;-70
2023/05/27 01:11:38;;;;;;;8.35;3.55;;;16.90;61.90;;;;;;5112964;28;20106;-71
2023/05/27 01:14:09;;;;;;;11.70;3.60;;;16.80;61.80;;;;;;5113515;28;20027;-72
2023/05/27 01:16:36;;;;;;;;;;;16.80;61.20;;;;;;5113952;28;20020;-72
2023/05/27 01:19:05;;;;;;;9.13;3.42;;;16.80;60.90;;;;;;5113262;28;20309;-72
2023/05/27 01:21:33;;;;;;;9.85;4.20;;;16.80;60.90;;;;;;5112907;28;20448;-72
2023/05/27 01:24:03;;;;;;;10.52;4.05;;;16.80;60.80;;;;;;5113418;28;20491;-71
2023/05/27 01:26:29;;;;;;;9.85;3.33;;;16.70;60.70;;;;;;5112923;28;20482;-71
2023/05/27 01:28:55;;;;;;;10.55;3.47;;;16.80;60.60;;;;;;5113358;28;20062;-72
2023/05/27 01:31:27;;;;;;;13.25;4.07;;;16.80;60.30;;;;;;5110794;28;20016;-72
2023/05/27 01:34:06;;;;;;;10.98;3.60;;;16.70;60.70;;;;;;5113240;28;20027;-71
2023/05/27 01:36:37;;;;;;;11.10;3.53;;;16.70;60.90;;;;;;5112837;28;20119;-70
2023/05/27 01:39:05;;;;;;;11.30;4.07;;;16.70;61.10;;;;;;5113102;28;20027;-70
2023/05/27 01:41:31;;;;;;;10.27;4.07;;;16.70;61.30;;;;;;5112649;28;20028;-71
2023/05/27 01:43:58;;;;;;;8.07;3.72;;;16.60;61.00;;;;;;5112873;28;20024;-71
2023/05/27 01:46:23;;;;;;;8.20;3.63;;;16.50;60.90;;;;;;5112715;28;20480;-71
2023/05/27 01:48:49;;;;;;;9.57;3.58;;;16.60;61.10;;;;;;5116414;28;20028;-71
2023/05/27 01:51:15;;;;;;;13.20;3.83;;;16.50;61.80;;;;;;5116810;28;20035;-71
2023/05/27 01:53:41;;;;;;;13.02;3.60;;;16.50;61.40;;;;;;5117155;28;20020;-70
2023/05/27 01:56:06;;;;;;;8.63;3.40;;;16.50;61.40;;;;;;5117092;28;20023;-71
2023/05/27 01:58:32;;;;;;;20.23;4.35;;;16.50;61.60;;;;;;5116608;28;20030;-72
2023/05/27 02:00:58;;;;;;;14.38;3.95;;;16.40;61.50;;;;;;5116787;28;20050;-72
2023/05/27 02:03:23;;;;;;;10.10;4.10;;;16.40;61.60;;;;;;5116343;28;20035;-72
2023/05/27 02:05:49;;;;;;;10.40;3.92;;;16.50;61.30;;;;;;5116742;28;20051;-71
2023/05/27 02:08:14;;;;;;;11.80;3.92;;;16.50;61.10;;;;;;5116721;28;20080;-71
2023/05/27 02:10:40;;;;;;;7.43;3.33;;;16.40;60.90;;;;;;5116963;28;20039;-71
2023/05/27 02:13:06;;;;;;;9.30;4.50;;;16.40;61.10;;;;;;5116838;28;20540;-71
2023/05/27 02:15:31;;;;;;;10.65;3.70;;;16.50;61.10;;;;;;5116381;28;20027;-71
2023/05/27 02:17:58;;;;;;;9.82;3.67;;;16.40;61.00;;;;;;5116777;28;20357;-71
2023/05/27 02:20:23;;;;;;;13.45;3.80;;;16.40;61.30;;;;;;5116093;28;20043;-71
2023/05/27 02:22:50;;;;;;;7.15;3.67;;;16.40;60.90;;;;;;5116682;28;20418;-71
2023/05/27 02:25:15;;;;;;;13.52;3.95;;;16.40;60.90;;;;;;5116404;28;20031;-71
2023/05/27 02:27:48;;;;;;;12.60;4.10;;;16.40;60.90;;;;;;5116474;28;20039;-71
2023/05/27 02:30:14;;;;;;;11.00;3.70;;;16.40;61.00;;;;;;5116249;28;20040;-77
2023/05/27 02:32:40;;;;;;;14.02;3.67;;;16.30;60.90;;;;;;5116429;28;20058;-71
2023/05/27 02:35:07;;;;;;;11.25;3.97;;;16.30;60.70;;;;;;5116484;27;20055;-71
2023/05/27 02:37:33;;;;;;;13.93;4.25;;;16.20;60.80;;;;;;5115828;28;20106;-71
2023/05/27 02:39:58;;;;;;;10.85;3.70;;;16.20;61.00;;;;;;5116109;28;20111;-72
2023/05/27 02:42:24;;;;;;;10.70;3.83;;;16.20;60.90;;;;;;5115918;27;20031;-72
2023/05/27 02:44:50;;;;;;;11.80;4.13;;;16.10;60.70;;;;;;5115805;28;20036;-72
2023/05/27 02:47:15;;;;;;;9.88;3.47;;;16.10;60.90;;;;;;5115791;28;20032;-72
2023/05/27 02:49:41;;;;;;;10.50;3.78;;;16.10;61.20;;;;;;5116018;28;20464;-70
2023/05/27 02:52:06;;;;;;;12.73;3.95;;;16.10;61.40;;;;;;5115817;28;20031;-70
2023/05/27 02:54:32;;;;;;;6.90;3.20;;;16.10;61.50;;;;;;5115668;28;20096;-70
2023/05/27 02:56:58;;;;;;;11.68;3.92;;;16.10;61.70;;;;;;5115881;28;20523;-70
2023/05/27 02:59:23;;;;;;;8.15;3.22;;;16.10;61.80;;;;;;5115200;28;20365;-72
2023/05/27 03:01:49;;;;;;;11.90;3.67;;;16.10;61.80;;;;;;5116118;28;20153;-70
2023/05/27 03:04:16;;;;;;;14.45;4.05;;;16.00;61.90;;;;;;5115821;28;20380;-70
2023/05/27 03:06:42;;;;;;;10.85;3.70;;;16.00;62.10;;;;;;5114495;28;20484;-70
2023/05/27 03:09:07;;;;;;;11.73;4.35;;;16.00;62.30;;;;;;5115849;28;20146;-72
2023/05/27 03:11:33;;;;;;;14.52;3.50;;;15.90;63.00;;;;;;5115202;28;20035;-71
2023/05/27 03:13:59;;;;;;;16.17;4.35;;;15.90;63.00;;;;;;5115614;28;20077;-71
2023/05/27 03:16:25;;;;;;;8.82;3.65;;;15.90;63.20;;;;;;5113804;28;20050;-72
2023/05/27 03:18:51;;;;;;;8.60;3.95;;;15.90;63.20;;;;;;5115101;28;20038;-71
2023/05/27 03:21:16;;;;;;;16.40;4.15;;;15.90;63.20;;;;;;5114664;28;20417;-71
2023/05/27 03:23:42;;;;;;;11.88;3.95;;;15.80;63.30;;;;;;5115234;28;20020;-71
2023/05/27 03:26:08;;;;;;;10.05;3.88;;;15.80;63.40;;;;;;5115368;28;20480;-71
2023/05/27 03:28:34;;;;;;;12.18;3.70;;;15.80;63.50;;;;;;5114909;28;20020;-71
2023/05/27 03:30:59;;;;;;;13.93;4.30;;;15.80;63.80;;;;;;5115188;28;20019;-71
2023/05/27 03:33:25;;;;;;;12.00;4.40;;;15.80;63.90;;;;;;5114646;28;20027;-71
2023/05/27 03:35:51;;;;;;;11.07;4.15;;;15.80;63.90;;;;;;5114882;28;20051;-71
2023/05/27 03:38:16;;;;;;;13.07;4.43;;;15.80;63.90;;;;;;5114796;28;20046;-71
2023/05/27 03:40:42;;;;;;;12.25;3.92;;;15.80;63.70;;;;;;5114600;28;20040;-71
2023/05/27 03:43:08;;;;;;;11.60;4.40;;;15.80;63.70;;;;;;5114795;28;20107;-71
2023/05/27 03:45:33;;;;;;;13.65;4.20;;;15.80;63.70;;;;;;5114566;28;20135;-71
2023/05/27 03:47:59;;;;;;;14.07;4.20;;;15.80;63.60;;;;;;5114841;28;20019;-71
2023/05/27 03:50:24;;;;;;;13.43;3.72;;;15.80;64.00;;;;;;5114781;28;20028;-71
2023/05/27 03:52:50;;;;;;;10.70;4.25;;;15.80;64.20;;;;;;5114754;28;20027;-71
2023/05/27 03:55:16;;;;;;;10.80;3.83;;;15.80;63.90;;;;;;5114795;28;20024;-71
2023/05/27 03:57:42;;;;;;;8.35;3.50;;;15.90;63.90;;;;;;5114405;28;20024;-71
2023/05/27 04:00:11;;;;;;;9.05;3.30;;;15.80;64.20;;;;;;5114157;28;20035;-71
2023/05/27 04:02:37;;;;;;;14.45;3.85;;;15.80;64.10;;;;;;5114229;28;20039;-71
2023/05/27 04:05:03;;;;;;;14.65;3.20;;;15.90;64.60;;;;;;5114655;28;20020;-71
2023/05/27 04:07:28;;;;;;;17.65;4.10;;;15.90;64.10;;;;;;5113916;28;20468;-70
2023/05/27 04:09:54;;;;;;;12.52;4.00;;;16.00;63.80;;;;;;5113770;28;20057;-71
2023/05/27 04:12:20;;;;;;;14.65;4.53;;;16.00;63.90;;;;;;5114524;28;20453;-71
2023/05/27 04:14:46;;;;;;;13.68;4.63;;;16.10;64.10;;;;;;5114420;28;20376;-70
2023/05/27 04:17:13;;;;;;;13.80;3.75;;;16.10;63.90;;;;;;5114376;28;20047;-71
2023/05/27 04:19:39;;;;;;;16.00;3.95;;;16.20;63.80;;;;;;5113548;27;20498;-71
2023/05/27 04:22:05;;;;;;;14.35;4.30;;;16.30;63.90;;;;;;5114252;28;20107;-71
2023/05/27 04:24:30;;;;;;;9.98;3.42;;;16.30;63.50;;;;;;5113937;28;20422;-71
2023/05/27 04:26:56;;;;;;;14.90;3.67;;;16.40;63.30;;;;;;5114757;28;20023;-71
2023/05/27 04:29:22;;;;;;;11.23;3.85;;;16.50;62.50;;;;;;5113728;28;20084;-75
2023/05/27 04:31:48;;;;;;;13.32;3.90;;;16.60;62.40;;;;;;5114022;28;20027;-71
2023/05/27 04:34:14;;;;;;;11.32;3.88;;;16.60;62.50;;;;;;5113954;28;20032;-71
2023/05/27 04:36:40;;;;;;;10.25;3.88;;;16.70;62.00;;;;;;5113488;28;20452;-71
2023/05/27 04:39:07;;;;;;;11.10;3.55;;;16.80;62.60;;;;;;5113556;28;20036;-71
2023/05/27 04:41:33;;;;;;;13.20;4.10;;;16.90;61.70;;;;;;5113585;28;20020;-71
2023/05/27 04:44:00;;;;;;;16.10;4.13;;;17.00;61.40;;;;;;5113824;28;20055;-71
2023/05/27 04:46:26;;;;;;;11.15;3.92;;;17.10;61.00;;;;;;5113700;27;20050;-71
2023/05/27 04:48:53;;;;;;;11.55;3.70;;;17.20;60.60;;;;;;5113572;28;20051;-71
2023/05/27 04:51:19;;;;;;;9.63;3.90;;;17.30;60.70;;;;;;5113793;28;20028;-71
2023/05/27 04:53:47;;;;;;;11.98;3.67;;;17.50;60.00;;;;;;5113236;28;20035;-71
2023/05/27 04:56:15;;;;;;;9.93;3.55;;;17.60;59.60;;;;;;5113571;28;20027;-71
2023/05/27 04:58:42;;;;;;;9.43;4.10;;;17.70;59.30;;;;;;5113170;28;20057;-71
2023/05/27 05:01:16;;;;;;;11.43;3.95;;;17.90;59.10;;;;;;5113949;28;20450;-71
2023/05/27 05:03:51;;;;;;;12.93;3.92;;;18.10;58.10;;;;;;5113199;28;20030;-71
2023/05/27 05:06:22;;;;;;;11.55;3.63;;;18.40;58.50;;;;;;5113516;28;20035;-71
2023/05/27 05:08:48;;;;;;;12.60;3.50;;;18.70;57.10;;;;;;5113085;28;20023;-71
2023/05/27 05:11:14;;;;;;;12.57;4.18;;;19.10;55.10;;;;;;5113328;28;20031;-71
2023/05/27 05:13:40;;;;;;;9.88;4.18;;;19.40;54.40;;;;;;5113032;28;20044;-71
2023/05/27 05:16:06;;;;;;;12.95;4.97;;;19.80;53.90;;;;;;5113781;28;20066;-71
2023/05/27 05:18:31;;;;;;;11.52;4.03;;;20.20;53.10;;;;;;5112860;28;20102;-71
2023/05/27 05:20:57;;;;;;;10.75;3.58;;;20.60;51.50;;;;;;5113302;28;20084;-71
2023/05/27 05:23:23;;;;;;;10.18;4.13;;;20.90;50.90;;;;;;5112946;28;20063;-71
2023/05/27 05:25:54;;;;;;;15.43;4.13;;;21.30;49.80;;;;;;5112133;28;20028;-72
2023/05/27 05:28:20;;;;;;;13.73;4.00;;;21.60;49.80;;;;;;5112629;28;20111;-71
2023/05/27 05:30:46;;;;;;;12.63;4.22;;;21.90;48.60;;;;;;5112791;28;20106;-72
2023/05/27 05:33:11;;;;;;;9.13;3.80;;;22.00;48.10;;;;;;5113230;28;20111;-71
2023/05/27 05:35:37;;;;;;;16.52;4.22;;;22.30;48.40;;;;;;5112722;28;20027;-71
2023/05/27 05:38:02;;;;;;;12.13;3.78;;;22.60;46.90;;;;;;5113160;28;20034;-71
2023/05/27 05:40:28;;;;;;;10.98;3.83;;;22.80;46.50;;;;;;5112325;28;20040;-71
2023/05/27 05:42:54;;;;;;;12.68;4.50;;;23.00;46.30;;;;;;5113193;28;20034;-71
2023/05/27 05:45:19;;;;;;;12.98;5.05;;;23.10;45.40;;;;;;5112654;28;20048;-71
2023/05/27 05:47:45;;;;;;;11.73;4.13;;;23.30;45.30;;;;;;5112569;28;20412;-71
2023/05/27 05:50:11;;;;;;;10.77;3.67;;;23.60;45.10;;;;;;5113067;28;20027;-71
2023/05/27 05:52:36;;;;;;;12.45;3.92;;;23.80;44.40;;;;;;5112512;28;20102;-71
2023/05/27 05:55:02;;;;;;;13.95;4.50;;;24.20;44.00;;;;;;5112574;28;20024;-71
2023/05/27 05:57:31;;;;;;;14.75;3.85;;;24.70;43.80;;;;;;5112750;28;20024;-71
2023/05/27 05:59:57;;;;;;;8.63;3.88;;;25.20;42.40;;;;;;5112611;28;20036;-71
2023/05/27 06:02:23;;;;;;;8.82;3.38;;;25.60;41.50;;;;;;5112829;28;20028;-71
2023/05/27 06:04:48;;;;;;;7.93;3.75;;;26.10;40.70;;;;;;5112601;28;20073;-71
2023/05/27 06:07:14;;;;;;;12.82;3.78;;;26.50;40.00;;;;;;5112344;28;20054;-71
2023/05/27 06:09:40;;;;;;;8.85;3.95;;;26.80;39.30;;;;;;5112028;28;20036;-72
2023/05/27 06:12:06;;;;;;;12.02;4.00;;;27.00;38.80;;;;;;5112801;28;20376;-71
2023/05/27 06:14:32;;;;;;;15.77;4.80;;;27.40;38.60;;;;;;5112200;28;20035;-71
2023/05/27 06:16:57;;;;;;;14.48;4.00;;;27.90;37.70;;;;;;5112676;28;20026;-71
2023/05/27 06:19:23;;;;;;;11.20;4.22;;;28.30;36.10;;;;;;5111460;28;20395;-70
2023/05/27 06:21:48;;;;;;;14.32;4.45;;;28.70;36.60;;;;;;5111822;28;20089;-70
2023/05/27 06:24:15;;;;;;;12.20;4.13;;;28.80;36.10;;;;;;5112775;28;20023;-70
2023/05/27 06:26:40;;;;;;;12.15;4.05;;;29.20;35.70;;;;;;5112279;28;20428;-71
2023/05/27 06:29:06;;;;;;;9.30;4.20;;;29.30;35.40;;;;;;5112667;28;20035;-70
2023/05/27 06:31:33;;;;;;;10.73;3.65;;;29.40;34.80;;;;;;5112150;28;20024;-72
2023/05/27 06:33:59;;;;;;;10.40;4.00;;;29.20;34.20;;;;;;5114480;28;20028;-71
2023/05/27 06:36:24;;;;;;;10.13;3.80;;;29.70;34.70;;;;;;5116282;28;20035;-71
2023/05/27 06:38:51;;;;;;;9.63;3.83;;;29.50;34.00;;;;;;5115826;28;20028;-71
2023/05/27 06:41:17;;;;;;;12.32;4.30;;;29.90;35.40;;;;;;5116169;28;20016;-71
2023/05/27 06:43:42;;;;;;;13.57;4.07;;;30.10;34.10;;;;;;5115565;28;20357;-71
2023/05/27 06:46:08;;;;;;;10.45;4.30;;;30.20;34.00;;;;;;5116364;28;20043;-71
2023/05/27 06:48:35;;;;;;;13.45;4.40;;;30.30;34.20;;;;;;5115302;28;20092;-72
2023/05/27 06:51:01;;;;;;;14.32;4.05;;;30.50;33.50;;;;;;5116057;27;20027;-71
2023/05/27 06:53:26;;;;;;;13.70;4.18;;;30.20;33.40;;;;;;5114434;28;20027;-72
2023/05/27 06:55:52;;;;;;;11.95;4.43;;;30.30;33.40;;;;;;5115431;28;20256;-71
2023/05/27 06:58:18;;;;;;;11.07;4.13;;;30.40;33.00;;;;;;5115593;28;20074;-71
2023/05/27 07:00:43;;;;;;;11.55;4.63;;;30.40;33.30;;;;;;5114990;28;20092;-72
2023/05/27 07:03:09;;;;;;;9.20;4.00;;;30.30;33.00;;;;;;5116132;28;20468;-72
2023/05/27 07:05:34;;;;;;;9.27;3.30;;;30.10;33.30;;;;;;5115425;28;20424;-72
2023/05/27 07:08:00;;;;;;;11.70;4.38;;;30.20;33.30;;;;;;5115796;28;20456;-71
2023/05/27 07:10:26;;;;;;;12.65;4.03;;;30.00;32.90;;;;;;5115690;28;20103;-71
2023/05/27 07:12:51;;;;;;;12.25;4.65;;;29.80;33.20;;;;;;5115138;28;20431;-71
2023/05/27 07:15:17;;;;;;;13.05;4.03;;;30.10;33.30;;;;;;5115464;28;20032;-71
2023/05/27 07:17:42;;;;;;;12.88;4.13;;;30.00;33.30;;;;;;5114441;28;20051;-71
2023/05/27 07:20:09;;;;;;;10.73;4.30;;;30.30;33.30;;;;;;5115286;28;20032;-71
2023/05/27 07:22:35;;;;;;;10.98;3.90;;;30.30;33.00;;;;;;5115150;28;20364;-76
2023/05/27 07:25:00;;;;;;;9.90;3.78;;;30.00;33.20;;;;;;5115295;28;20016;-72
2023/05/27 07:27:26;;;;;;;12.02;4.05;;;29.90;33.90;;;;;;5114477;28;20108;-70
2023/05/27 07:29:51;;;;;;;13.82;4.63;;;30.30;34.30;;;;;;5114476;28;20031;-71
2023/05/27 07:32:17;;;;;;;14.93;4.50;;;30.80;33.30;;;;;;5115125;28;20032;-72
2023/05/27 07:34:43;;;;;;;16.13;4.78;;;31.00;32.90;;;;;;5114707;28;20357;-71
2023/05/27 07:37:09;;;;;;;15.95;4.45;;;30.80;32.50;;;;;;5114873;28;20024;-70
2023/05/27 07:39:34;;;;;;;10.45;4.30;;;31.00;32.50;;;;;;5114193;28;20110;-72
2023/05/27 07:42:00;;;;;;;15.13;4.35;;;31.10;32.30;;;;;;5114525;28;20034;-72
2023/05/27 07:44:27;;;;;;;14.68;5.10;;;30.90;32.70;;;;;;5114387;28;20103;-71
2023/05/27 07:46:53;;;;;;;11.13;4.13;;;30.70;32.20;;;;;;5113898;28;20085;-72
2023/05/27 07:49:19;;;;;;;9.95;4.15;;;30.70;32.40;;;;;;5114707;28;20433;-72
2023/05/27 07:51:44;;;;;;;13.73;4.22;;;30.70;32.50;;;;;;5114027;28;20063;-72
2023/05/27 07:54:10;;;;;;;14.52;4.20;;;30.80;32.60;;;;;;5114363;28;20024;-71
2023/05/27 07:56:36;;;;;;;12.48;4.60;;;30.70;33.30;;;;;;5114649;28;20031;-72
2023/05/27 07:59:01;;;;;;;14.77;4.53;;;30.40;32.70;;;;;;5113937;28;20024;-72
2023/05/27 08:01:31;;;;;;;12.23;4.35;;;30.50;33.10;;;;;;5114101;28;20028;-72
2023/05/27 08:03:57;;;;;;;11.77;3.90;;;30.50;32.70;;;;;;5113863;28;20076;-71
2023/05/27 08:06:22;;;;;;;12.68;4.15;;;30.30;32.90;;;;;;5113882;28;20256;-71
2023/05/27 08:08:48;;;;;;;11.02;4.28;;;30.40;33.30;;;;;;5113794;28;20035;-72
2023/05/27 08:11:14;;;;;;;12.70;4.15;;;30.40;33.80;;;;;;5113964;28;20125;-72
2023/05/27 08:13:39;;;;;;;10.55;4.22;;;30.10;33.40;;;;;;5113962;28;20037;-73
2023/05/27 08:16:05;;;;;;;14.52;4.55;;;30.50;33.90;;;;;;5114272;28;20371;-72
2023/05/27 08:18:30;;;;;;;11.38;3.92;;;30.40;34.00;;;;;;5114011;28;20059;-72
2023/05/27 08:20:56;;;;;;;12.15;4.00;;;30.30;33.30;;;;;;5113627;28;20375;-72
2023/05/27 08:23:22;;;;;;;12.27;4.25;;;30.20;33.60;;;;;;5113848;28;20035;-72
2023/05/27 08:25:47;;;;;;;11.80;4.35;;;30.00;33.20;;;;;;5113290;28;20088;-73
2023/05/27 08:28:13;;;;;;;13.63;4.53;;;29.70;33.80;;;;;;5114120;28;20063;-72
2023/05/27 08:30:39;;;;;;;14.80;4.38;;;28.50;34.60;;;;;;5114136;28;20074;-72
2023/05/27 08:33:05;;;;;;;12.65;4.20;;;28.10;35.00;;;;;;5113944;28;20140;-72
2023/05/27 08:35:31;;;;;;;16.30;4.82;;;28.00;36.60;;;;;;5113619;28;20030;-72
2023/05/27 08:37:56;;;;;;;10.90;3.97;;;27.70;35.80;;;;;;5113067;28;20023;-72
2023/05/27 08:40:22;;;;;;;12.52;4.45;;;27.60;36.30;;;;;;5113867;28;20093;-71
2023/05/27 08:42:48;;;;;;;15.93;5.05;;;27.20;37.10;;;;;;5113599;28;20027;-71
2023/05/27 08:45:14;;;;;;;28.27;7.40;;;27.20;37.20;;;;;;5113243;28;20061;-71
2023/05/27 08:47:40;;;;;;;17.17;5.35;;;27.30;37.70;;;;;;5113565;28;20434;-72
2023/05/27 08:50:07;;;;;;;9.55;4.30;;;26.90;37.40;;;;;;5113011;28;20031;-71
2023/05/27 08:52:33;;;;;;;14.10;4.38;;;26.60;37.70;;;;;;5113541;28;20466;-71
2023/05/27 08:55:00;;;;;;;13.57;4.60;;;25.90;38.00;;;;;;5113081;28;20027;-71
2023/05/27 08:57:31;;;;;;;17.58;4.50;;;25.50;38.40;;;;;;5113021;28;20094;-71
2023/05/27 08:59:57;;;;;;;;;;;25.10;38.80;;;;;;5113434;28;20371;-71
2023/05/27 09:02:24;;;;;;;11.60;4.50;;;24.90;39.30;;;;;;5113379;28;19915;-71
2023/05/27 09:04:50;;;;;;;16.80;3.90;;;24.50;39.90;;;;;;5112874;28;20116;-72
2023/05/27 09:07:17;;;;;;;8.73;3.20;;;24.30;37.40;;;;;;5113118;28;20024;-72
2023/05/27 09:09:53;;;;;;;11.32;3.88;;;24.30;38.00;;;;;;5112549;28;20123;-76
2023/05/27 09:12:26;;;;;;;11.00;3.45;;;24.20;38.80;;;;;;5112965;28;20015;-71
2023/05/27 09:14:53;;;;;;;9.43;3.70;;;24.30;36.90;;;;;;5112603;28;20023;-71
2023/05/27 09:17:19;;;;;;;10.32;3.85;;;24.20;37.20;;;;;;5112887;28;20032;-71
2023/05/27 09:19:48;;;;;;;14.02;4.00;;;24.20;37.80;;;;;;5111859;28;20028;-72
2023/05/27 09:22:24;;;;;;;15.00;4.78;;;24.10;38.70;;;;;;5112839;28;20491;-71
2023/05/27 09:24:53;;;;;;;12.15;3.80;;;24.10;38.20;;;;;;5112597;28;20077;-71
2023/05/27 09:27:23;;;;;;;9.15;3.70;;;24.10;37.90;;;;;;5112565;28;20077;-71
2023/05/27 09:29:48;;;;;;;12.63;4.38;;;24.20;39.10;;;;;;5112198;28;20023;-71
2023/05/27 09:32:27;;;;;;;13.73;3.83;;;24.20;38.30;;;;;;5112484;28;20379;-71
2023/05/27 09:34:54;;;;;;;15.77;4.30;;;24.30;38.30;;;;;;5112731;28;20077;-71
2023/05/27 09:37:21;;;;;;;12.88;4.15;;;24.30;38.20;;;;;;5113094;28;20473;-71
2023/05/27 09:39:48;;;;;;;10.50;3.95;;;24.20;39.00;;;;;;5112415;28;20413;-72
2023/05/27 09:42:14;;;;;;;14.32;4.25;;;24.20;39.80;;;;;;5112937;28;20039;-71
2023/05/27 09:44:42;;;;;;;11.80;4.05;;;24.10;40.10;;;;;;5112577;28;20015;-71
2023/05/27 09:47:11;;;;;;;12.35;4.25;;;24.00;41.00;;;;;;5112437;28;20157;-71
2023/05/27 09:49:41;;;;;;;12.48;4.40;;;23.90;40.30;;;;;;5112967;28;20031;-71
2023/05/27 09:52:10;;;;;;;17.50;4.13;;;23.80;40.00;;;;;;5111994;28;20028;-71
2023/05/27 09:54:37;;;;;;;12.63;4.20;;;23.90;40.00;;;;;;5112963;28;20034;-71
2023/05/27 09:57:06;;;;;;;14.02;4.47;;;24.00;39.80;;;;;;5111742;28;20032;-70
2023/05/27 09:59:32;;;;;;;10.70;4.28;;;23.80;39.70;;;;;;5111989;28;20032;-71
2023/05/27 10:02:00;;;;;;;13.93;4.28;;;23.80;40.50;;;;;;5112199;28;20492;-71
2023/05/27 10:04:26;;;;;;;8.90;3.88;;;23.70;39.20;;;;;;5111332;28;20348;-71
2023/05/27 10:06:53;;;;;;;12.35;4.30;;;23.70;38.80;;;;;;5112249;28;20368;-71
2023/05/27 10:09:19;;;;;;;12.65;4.50;;;23.50;39.60;;;;;;5115075;28;20073;-71
2023/05/27 10:11:45;;;;;;;13.50;4.00;;;23.50;41.10;;;;;;5116794;28;20028;-71
2023/05/27 10:14:11;;;;;;;12.73;4.85;;;23.60;40.40;;;;;;5115792;28;20333;-71
2023/05/27 10:16:37;;;;;;;12.52;4.00;;;23.70;39.30;;;;;;5116877;28;20026;-71
2023/05/27 10:19:10;;;;;;;11.00;3.83;;;23.70;39.20;;;;;;5115888;28;20035;-71
2023/05/27 10:21:43;;;;;;;16.55;4.20;;;23.70;38.40;;;;;;5116563;28;20066;-70
2023/05/27 10:24:11;;;;;;;8.60;3.38;;;23.70;39.10;;;;;;5115971;28;20027;-71
2023/05/27 10:26:42;;;;;;;11.68;4.40;;;23.70;38.50;;;;;;5116359;28;20023;-70
2023/05/27 10:29:12;;;;;;;;;;;23.70;38.90;;;;;;5116380;28;20770;-70
2023/05/27 10:32:05;;;;;;;13.50;4.20;;;23.70;38.20;;;;;;5116213;27;19904;-71
2023/05/27 10:34:37;;;;;;;13.05;3.70;;;23.50;38.40;;;;;;5113539;28;20395;-72
2023/05/27 10:37:03;;;;;;;14.02;4.50;;;23.50;38.80;;;;;;5115362;28;20045;-72
2023/05/27 10:39:29;;;;;;;13.35;4.53;;;23.50;38.70;;;;;;5115955;28;20064;-72
2023/05/27 10:41:59;;;;;;;11.50;4.07;;;23.50;39.40;;;;;;5115551;28;20128;-72
2023/05/27 10:44:39;;;;;;;13.27;4.22;;;23.60;40.10;;;;;;5115880;28;20020;-72
2023/05/27 10:47:14;;;;;;;12.90;4.10;;;23.50;40.20;;;;;;5115315;28;20039;-72
2023/05/27 10:49:46;;;;;;;12.43;3.70;;;23.40;39.70;;;;;;5116431;28;20032;-71
2023/05/27 10:52:13;;;;;;;13.60;4.28;;;23.60;39.30;;;;;;5115777;28;20110;-72
2023/05/27 10:54:41;;;;;;;13.45;3.97;;;23.70;39.30;;;;;;5115709;28;20028;-72
2023/05/27 10:57:07;;;;;;;12.98;3.92;;;23.60;38.00;;;;;;5115262;28;20031;-72
2023/05/27 10:59:48;;;;;;;7.72;3.30;;;23.50;37.70;;;;;;5115719;28;20054;-73
2023/05/27 11:02:14;;;;;;;9.85;3.95;;;23.40;36.50;;;;;;5115263;28;20122;-72
2023/05/27 11:04:40;;;;;;;13.15;3.85;;;23.40;38.90;;;;;;5115178;28;20433;-72
2023/05/27 11:07:06;;;;;;;8.90;3.50;;;23.50;36.00;;;;;;5114995;28;20031;-72
2023/05/27 11:09:50;;;;;;;10.07;3.60;;;23.50;35.60;;;;;;5115602;28;20376;-72
2023/05/27 11:12:18;;;;;;;9.68;3.90;;;23.50;36.30;;;;;;5115160;28;20034;-72
2023/05/27 11:14:56;;;;;;;9.38;3.45;;;23.50;36.30;;;;;;5115246;28;20032;-72
2023/05/27 11:17:22;;;;;;;8.85;3.58;;;23.50;37.60;;;;;;5115189;28;20019;-72
2023/05/27 11:19:49;;;;;;;10.82;3.85;;;23.40;37.30;;;;;;5115252;28;20031;-72
2023/05/27 11:22:16;;;;;;;12.45;4.05;;;23.50;36.90;;;;;;5114902;28;20039;-72
2023/05/27 11:24:54;;;;;;;10.85;3.53;;;23.40;36.10;;;;;;5112866;28;20032;-72
2023/05/27 11:27:20;;;;;;;9.25;3.65;;;23.60;37.20;;;;;;5115008;28;20057;-71
2023/05/27 11:29:51;;;;;;;9.05;3.38;;;23.70;35.30;;;;;;5113377;28;20016;-72
2023/05/27 11:32:18;;;;;;;11.00;4.13;;;23.70;35.80;;;;;;5114653;28;20027;-72
2023/05/27 11:34:47;;;;;;;12.15;3.47;;;23.70;35.70;;;;;;5114759;27;20119;-72
2023/05/27 11:37:13;;;;;;;11.05;3.72;;;23.70;35.80;;;;;;5114385;28;20753;-71
2023/05/27 11:39:50;;;;;;;13.10;3.72;;;23.60;36.70;;;;;;5114656;28;20023;-70
2023/05/27 11:42:21;;;;;;;12.82;3.60;;;23.60;37.30;;;;;;5114341;28;20054;-71
2023/05/27 11:44:51;;;;;;;9.65;3.72;;;23.60;36.40;;;;;;5114601;28;20353;-72
2023/05/27 11:47:17;;;;;;;11.82;3.85;;;23.70;36.20;;;;;;5114088;28;20024;-72
2023/05/27 11:49:42;;;;;;;10.77;3.60;;;23.70;36.30;;;;;;5114494;28;20184;-73
2023/05/27 11:52:11;;;;;;;8.85;4.07;;;23.80;37.00;;;;;;5113171;28;20495;-73
2023/05/27 11:54:38;;;;;;;12.07;4.03;;;23.80;35.80;;;;;;5113961;28;20035;-72
2023/05/27 11:57:06;;;;;;;10.52;3.38;;;23.70;35.40;;;;;;5114299;28;20028;-73
2023/05/27 11:59:34;;;;;;;18.10;4.25;;;23.70;36.00;;;;;;5114187;28;20032;-74
2023/05/27 12:02:00;;;;;;;10.88;3.83;;;23.80;35.50;;;;;;5114019;28;20034;-73
2023/05/27 12:04:25;;;;;;;11.90;4.32;;;23.80;36.00;;;;;;5114274;28;20023;-73
2023/05/27 12:06:51;;;;;;;9.23;3.97;;;23.80;35.70;;;;;;5113867;28;20023;-72
2023/05/27 12:09:17;;;;;;;13.73;3.88;;;23.80;36.30;;;;;;5113507;28;20028;-75
2023/05/27 12:11:42;;;;;;;8.02;3.63;;;23.70;36.30;;;;;;5114427;28;20027;-74
2023/05/27 12:14:08;;;;;;;10.70;3.88;;;23.50;35.60;;;;;;5113425;28;20023;-73
2023/05/27 12:16:34;;;;;;;10.80;4.20;;;23.60;36.80;;;;;;5112213;28;20058;-74
2023/05/27 12:19:00;;;;;;;9.90;4.20;;;23.50;36.20;;;;;;5113163;28;20027;-74
2023/05/27 12:21:25;;;;;;;13.70;4.28;;;23.40;36.50;;;;;;5113524;28;20464;-73
2023/05/27 12:23:51;;;;;;;11.35;3.95;;;23.30;36.80;;;;;;5113888;28;20468;-73
2023/05/27 12:26:17;;;;;;;12.68;4.43;;;23.20;37.60;;;;;;5113329;28;20031;-74
2023/05/27 12:28:44;;;;;;;10.85;3.95;;;23.10;37.00;;;;;;5113721;28;20109;-73
2023/05/27 12:31:09;;;;;;;9.70;3.63;;;23.10;37.40;;;;;;5112716;28;20027;-73
2023/05/27 12:33:35;;;;;;;9.25;4.38;;;23.00;38.20;;;;;;5113533;28;20028;-73
2023/05/27 12:36:02;;;;;;;12.15;3.80;;;23.00;38.10;;;;;;5113263;28;20020;-74
2023/05/27 12:38:27;;;;;;;10.75;3.83;;;23.00;38.40;;;;;;5113168;28;20032;-73